Main page
METAR-TAF:

METAR-TAF

Airports :

Brasília, Brazilian Federal District, Brazil

Brasília International Airport

latitude: 15-52S, longitude: 047-56W, elevation: 1061 m

Current weather observation

The report was made 1 hour and 20 minutes ago, at 23:00 UTC
Wind 10 kt from the South/Southeast
Temperature 25°C
Humidity 28%
Pressure 1021 hPa
Visibility 10 km or more
no clouds below 1500 m and no cumulonimbus

METAR: SBBR 192300Z 16010KT CAVOK 25/05 Q1021

Time: 21:20 (00:20 UTC)

Forecast

The report was made 4 hours and 20 minutes ago, at 20:00 UTC
Forecast valid from 20 at 00 UTC to 20 at 24 UTC
Wind 5 kt from the Southwest
Visibility 10 km or more
no clouds below 1500 m and no cumulonimbus
Becoming
from 20 at 09 UTC to 20 at 11 UTC
Wind 10 kt from the Southeast
Probability 30%
from 20 at 18 UTC to 20 at 22 UTC
Few clouds at a height of 4500 ft, Towering cumulus.

TAF: SBBR 192000Z 2000/2024 23005KT CAVOK TN17/2006Z TX30/2018Z BECMG 2009/2011 13010KT PROB30 2018/2022 FEW045TCU RMK PDB

Weather observations and forecasts of more than 4000 airports (METAR and TAF reports).

The available stations are represented by yellow and red dots on the map.

Hover mouse over dot to see the name of the station.

Then click to see weather observations and forecasts.

To change the map : click on the green buttons with a black cross to zoom in, on the green button with a dash to zoom out, or on the green arrows for adjacent maps.


METAR-TAF: